createdAt,value
2022-08-03T00:00:35.190Z,7.10
2022-08-03T00:03:05.058Z,6.70
2022-08-03T00:05:33.747Z,7.00
2022-08-03T00:08:01.834Z,7.00
2022-08-03T00:10:30.703Z,7.40
2022-08-03T00:12:58.838Z,7.20
2022-08-03T00:15:27.009Z,7.60
2022-08-03T00:17:55.152Z,7.10
2022-08-03T00:20:23.373Z,7.10
2022-08-03T00:22:51.818Z,6.90
2022-08-03T00:25:20.090Z,7.20
2022-08-03T00:27:48.515Z,7.20
2022-08-03T00:30:19.168Z,7.50
2022-08-03T00:32:48.122Z,7.30
2022-08-03T00:35:37.166Z,7.60
2022-08-03T00:38:05.959Z,7.10
2022-08-03T00:40:34.553Z,6.40
2022-08-03T00:43:06.358Z,7.30
2022-08-03T00:45:37.017Z,7.20
2022-08-03T00:48:32.838Z,6.90
2022-08-03T00:50:56.567Z,7.50
2022-08-03T00:53:25.264Z,7.00
2022-08-03T00:55:53.469Z,7.60
2022-08-03T00:58:21.652Z,7.20
2022-08-03T01:00:50.123Z,7.30
2022-08-03T01:03:18.222Z,7.00
2022-08-03T01:05:52.328Z,7.10
2022-08-03T01:08:37.608Z,7.10
2022-08-03T01:11:29.245Z,7.80
2022-08-03T01:14:19.341Z,7.80
2022-08-03T01:16:52.951Z,7.50
2022-08-03T01:19:33.293Z,7.00
2022-08-03T01:22:24.551Z,7.00
2022-08-03T01:25:10.572Z,8.00
2022-08-03T01:28:10.680Z,8.10
2022-08-03T01:30:43.957Z,8.10
2022-08-03T01:33:21.276Z,8.00
2022-08-03T01:36:02.422Z,7.50
2022-08-03T01:38:36.006Z,8.40
2022-08-03T01:41:08.882Z,8.50
2022-08-03T01:44:28.303Z,8.70
2022-08-03T01:46:30.060Z,8.40
2022-08-03T01:49:00.240Z,8.10
2022-08-03T01:51:56.667Z,8.00
2022-08-03T01:54:24.024Z,7.60
2022-08-03T01:56:55.075Z,8.60
2022-08-03T01:59:25.093Z,7.80
2022-08-03T02:02:16.101Z,8.50
2022-08-03T02:04:45.530Z,9.20
2022-08-03T02:07:15.827Z,8.70
2022-08-03T02:09:47.154Z,7.90
2022-08-03T02:12:17.840Z,8.30
2022-08-03T02:14:48.977Z,8.40
2022-08-03T02:17:19.326Z,8.90
2022-08-03T02:20:11.181Z,9.40
2022-08-03T02:22:44.678Z,9.10
2022-08-03T02:25:15.277Z,8.60
2022-08-03T02:27:51.906Z,8.70
2022-08-03T02:30:20.992Z,9.20
2022-08-03T02:32:56.172Z,9.00
2022-08-03T02:35:28.942Z,9.10
2022-08-03T02:38:02.797Z,9.10
2022-08-03T02:40:33.290Z,8.80
2022-08-03T02:43:09.543Z,8.90
2022-08-03T02:45:45.696Z,8.60
2022-08-03T02:48:19.069Z,8.80
2022-08-03T02:50:48.048Z,9.40
2022-08-03T02:53:18.374Z,9.90
2022-08-03T02:55:49.861Z,9.20
2022-08-03T02:58:22.949Z,8.00
2022-08-03T03:00:52.619Z,10.20
2022-08-03T03:03:22.363Z,8.70
2022-08-03T03:05:53.534Z,8.90
2022-08-03T03:10:59.615Z,10.60
2022-08-03T03:13:30.518Z,9.70
2022-08-03T03:16:02.822Z,8.90
2022-08-03T03:18:33.490Z,9.30
2022-08-03T03:21:03.693Z,9.60
2022-08-03T03:23:36.227Z,9.50
2022-08-03T03:26:05.522Z,9.80
2022-08-03T03:28:37.124Z,10.40
2022-08-03T03:31:07.015Z,10.50
2022-08-03T03:33:36.114Z,10.20
2022-08-03T03:36:06.546Z,9.70
2022-08-03T03:38:35.156Z,8.80
2022-08-03T03:41:04.620Z,9.90
2022-08-03T03:43:33.264Z,9.30
2022-08-03T03:46:01.569Z,9.90
2022-08-03T03:48:29.825Z,9.20
2022-08-03T03:51:01.494Z,8.40
2022-08-03T03:53:29.785Z,8.90
2022-08-03T03:56:02.020Z,8.80
2022-08-03T03:58:32.903Z,8.80
2022-08-03T04:01:01.749Z,9.40
2022-08-03T04:03:30.335Z,8.00
2022-08-03T04:06:17.473Z,8.20
2022-08-03T04:09:04.749Z,7.90
2022-08-03T04:11:44.461Z,7.90
2022-08-03T04:14:18.224Z,8.50
2022-08-03T04:16:53.855Z,8.70
2022-08-03T04:19:37.921Z,8.40
2022-08-03T04:22:10.080Z,8.70
2022-08-03T04:24:55.850Z,12.10
2022-08-03T04:27:27.641Z,10.20
2022-08-03T04:29:57.629Z,16.40
2022-08-03T04:32:28.853Z,23.70
2022-08-03T04:34:57.449Z,34.20
2022-08-03T04:37:28.606Z,9.60
2022-08-03T04:40:01.952Z,7.30
2022-08-03T04:42:33.486Z,7.10
2022-08-03T04:45:04.401Z,7.50
2022-08-03T04:47:34.017Z,7.90
2022-08-03T04:50:04.942Z,7.70
2022-08-03T04:52:36.569Z,7.60
2022-08-03T04:55:05.319Z,7.70
2022-08-03T04:57:33.507Z,7.70
2022-08-03T05:00:03.602Z,9.40
2022-08-03T05:02:32.387Z,11.30
2022-08-03T05:05:01.096Z,11.00
2022-08-03T05:07:36.436Z,8.30
2022-08-03T05:10:15.966Z,7.20
2022-08-03T05:12:46.590Z,7.30
2022-08-03T05:15:15.354Z,7.10
2022-08-03T05:17:43.852Z,6.60
2022-08-03T05:20:12.330Z,6.70
2022-08-03T05:22:40.442Z,6.80
2022-08-03T05:25:08.869Z,5.40
2022-08-03T05:27:37.162Z,5.10
2022-08-03T05:30:31.225Z,5.90
2022-08-03T05:32:54.231Z,4.70
2022-08-03T05:35:57.524Z,4.70
2022-08-03T05:38:13.759Z,4.90
2022-08-03T05:40:57.535Z,4.90
2022-08-03T05:43:40.837Z,4.40
2022-08-03T05:46:12.074Z,5.00
2022-08-03T05:48:42.167Z,4.60
2022-08-03T05:51:11.955Z,4.60
2022-08-03T05:53:42.090Z,4.30
2022-08-03T05:56:14.730Z,4.60
2022-08-03T05:58:45.710Z,4.00
2022-08-03T06:01:14.405Z,4.40
2022-08-03T06:03:43.035Z,4.80
2022-08-03T06:06:11.862Z,4.00
2022-08-03T06:08:41.672Z,4.50
2022-08-03T06:11:10.342Z,4.40
2022-08-03T06:13:39.709Z,4.30
2022-08-03T06:16:08.306Z,4.10
2022-08-03T06:18:37.086Z,4.20
2022-08-03T06:21:14.378Z,4.20
2022-08-03T06:23:54.791Z,4.50
2022-08-03T06:26:28.038Z,4.40
2022-08-03T06:28:56.309Z,3.80
2022-08-03T06:31:33.425Z,4.30
2022-08-03T06:34:32.154Z,3.90
2022-08-03T06:36:58.435Z,4.20
2022-08-03T06:39:31.591Z,3.70
2022-08-03T06:41:59.862Z,3.80
2022-08-03T06:44:28.111Z,4.40
2022-08-03T06:46:56.494Z,3.70
2022-08-03T06:49:25.090Z,3.80
2022-08-03T06:52:04.224Z,4.10
2022-08-03T06:54:35.686Z,4.10
2022-08-03T06:57:04.918Z,3.70
2022-08-03T07:00:06.274Z,3.60
2022-08-03T07:02:21.414Z,4.00
2022-08-03T07:04:50.602Z,3.30
2022-08-03T07:07:19.540Z,3.20
2022-08-03T07:09:56.793Z,3.20
2022-08-03T07:12:27.787Z,2.80
2022-08-03T07:15:00.869Z,4.10
2022-08-03T07:17:31.285Z,3.20
2022-08-03T07:20:00.879Z,3.10
2022-08-03T07:22:29.161Z,3.30
2022-08-03T07:24:57.398Z,3.30
2022-08-03T07:27:27.265Z,3.20
2022-08-03T07:29:56.481Z,3.30
2022-08-03T07:32:25.594Z,3.30
2022-08-03T07:34:58.436Z,3.40
2022-08-03T07:37:29.778Z,2.90
2022-08-03T07:39:58.864Z,2.60
2022-08-03T07:42:28.285Z,2.80
2022-08-03T07:44:57.619Z,2.80
2022-08-03T07:47:35.090Z,2.80
2022-08-03T07:50:06.424Z,2.10
2022-08-03T07:52:53.779Z,1.40
2022-08-03T07:55:25.158Z,2.10
2022-08-03T07:58:05.591Z,1.80
2022-08-03T08:00:34.196Z,1.70
2022-08-03T08:03:03.212Z,1.80
2022-08-03T08:05:31.674Z,1.60
2022-08-03T08:08:01.845Z,2.30
2022-08-03T08:10:30.649Z,2.50
2022-08-03T08:12:58.930Z,2.20
2022-08-03T08:15:27.440Z,2.50
2022-08-03T08:18:00.003Z,1.60
2022-08-03T08:20:31.838Z,1.50
2022-08-03T08:23:02.857Z,1.80
2022-08-03T08:25:32.741Z,1.40
2022-08-03T08:28:29.285Z,1.80
2022-08-03T08:30:51.189Z,1.20
2022-08-03T08:33:23.075Z,1.50
2022-08-03T08:35:53.707Z,1.50
2022-08-03T08:38:23.582Z,1.60
2022-08-03T08:40:51.891Z,1.10
2022-08-03T08:43:20.123Z,1.40
2022-08-03T08:45:52.464Z,1.50
2022-08-03T08:48:24.783Z,1.60
2022-08-03T08:50:57.147Z,1.50
2022-08-03T08:53:28.984Z,1.40
2022-08-03T08:56:01.778Z,1.20
2022-08-03T08:58:34.996Z,1.30
2022-08-03T09:01:04.488Z,1.30
2022-08-03T09:03:35.817Z,1.50
2022-08-03T09:06:04.410Z,1.50
2022-08-03T09:08:33.265Z,1.40
2022-08-03T09:11:02.355Z,1.40
2022-08-03T09:13:33.150Z,1.50
2022-08-03T09:16:23.589Z,1.40
2022-08-03T09:18:54.555Z,1.30
2022-08-03T09:21:33.244Z,1.20
2022-08-03T09:24:06.218Z,1.20
2022-08-03T09:26:36.856Z,1.30
2022-08-03T09:29:14.955Z,1.00
2022-08-03T09:31:46.027Z,1.20
2022-08-03T09:34:16.926Z,1.30
2022-08-03T09:36:50.732Z,1.40
2022-08-03T09:42:18.730Z,1.70
2022-08-03T09:44:52.958Z,1.30
2022-08-03T09:47:33.422Z,1.40
2022-08-03T09:50:07.034Z,1.50
2022-08-03T09:55:23.668Z,1.30
2022-08-03T09:58:10.503Z,1.20
2022-08-03T10:01:00.255Z,1.40
2022-08-03T10:03:30.966Z,1.60
2022-08-03T10:05:59.965Z,1.50
2022-08-03T10:08:28.467Z,1.30
2022-08-03T10:10:58.843Z,1.30
2022-08-03T10:13:27.610Z,1.30
2022-08-03T10:16:23.398Z,1.00
2022-08-03T10:18:43.973Z,1.20
2022-08-03T10:21:16.873Z,1.00
2022-08-03T10:23:46.959Z,1.00
2022-08-03T10:26:22.781Z,1.00
2022-08-03T10:28:54.562Z,1.20
2022-08-03T10:31:24.433Z,1.10
2022-08-03T10:33:58.232Z,1.60
2022-08-03T10:36:30.806Z,1.20
2022-08-03T10:39:02.815Z,1.20
2022-08-03T10:41:46.620Z,1.00
2022-08-03T10:44:23.416Z,1.00
2022-08-03T10:46:52.947Z,1.20
2022-08-03T10:49:34.711Z,0.90
2022-08-03T10:52:10.439Z,1.00
2022-08-03T10:55:12.883Z,1.10
2022-08-03T10:57:48.767Z,0.90
2022-08-03T11:00:19.852Z,0.90
2022-08-03T11:03:17.811Z,1.00
2022-08-03T11:05:54.587Z,0.90
2022-08-03T11:08:32.689Z,1.10
2022-08-03T11:11:28.588Z,1.40
2022-08-03T11:14:04.995Z,1.20
2022-08-03T11:16:41.863Z,1.10
2022-08-03T11:19:12.999Z,1.20
2022-08-03T11:21:50.886Z,1.70
2022-08-03T11:24:37.266Z,1.50
2022-08-03T11:27:20.015Z,1.30
2022-08-03T11:30:17.730Z,1.20
2022-08-03T11:32:49.185Z,1.40
2022-08-03T11:35:18.687Z,1.40
2022-08-03T11:38:04.893Z,1.50
2022-08-03T11:40:53.467Z,1.30
2022-08-03T11:43:31.778Z,1.50
2022-08-03T11:46:06.116Z,1.50
2022-08-03T11:51:04.057Z,1.60
2022-08-03T11:53:33.118Z,1.50
2022-08-03T11:56:13.035Z,1.70
2022-08-03T11:59:01.027Z,1.40
2022-08-03T12:01:37.744Z,1.50
2022-08-03T12:04:06.727Z,1.50
2022-08-03T12:06:54.797Z,1.40
2022-08-03T12:09:22.917Z,1.40
2022-08-03T12:11:59.699Z,1.50
2022-08-03T12:14:50.786Z,1.30
2022-08-03T12:17:19.505Z,1.80
2022-08-03T12:19:48.158Z,1.20
2022-08-03T12:22:17.239Z,1.60
2022-08-03T12:24:47.629Z,1.60
2022-08-03T12:27:26.610Z,1.50
2022-08-03T12:29:58.787Z,1.60
2022-08-03T12:32:29.725Z,1.40
2022-08-03T12:35:04.610Z,1.50
2022-08-03T12:37:33.187Z,1.60
2022-08-03T12:40:10.201Z,1.40
2022-08-03T12:42:40.691Z,1.60
2022-08-03T12:45:26.282Z,1.80
2022-08-03T12:48:03.758Z,1.50
2022-08-03T12:50:33.270Z,1.80
2022-08-03T12:53:08.001Z,1.70
2022-08-03T12:55:57.386Z,1.80
2022-08-03T12:58:38.792Z,1.60
2022-08-03T13:01:09.135Z,1.70
2022-08-03T13:03:50.501Z,1.70
2022-08-03T13:06:26.069Z,1.60
2022-08-03T13:09:12.521Z,1.70
2022-08-03T13:11:57.562Z,1.50
2022-08-03T13:14:28.765Z,1.60
2022-08-03T13:16:56.996Z,1.90
2022-08-03T13:19:25.130Z,1.90
2022-08-03T13:22:03.654Z,1.80
2022-08-03T13:24:33.801Z,1.80
2022-08-03T13:28:00.949Z,1.90
2022-08-03T13:29:53.089Z,1.90
2022-08-03T13:32:22.451Z,2.00
2022-08-03T13:34:50.702Z,1.60
2022-08-03T13:37:20.253Z,1.70
2022-08-03T13:39:58.768Z,1.60
2022-08-03T13:42:30.102Z,1.70
2022-08-03T13:44:59.108Z,1.60
2022-08-03T13:47:27.633Z,1.60
2022-08-03T13:50:00.345Z,1.60
2022-08-03T13:52:32.613Z,1.90
2022-08-03T13:55:01.709Z,1.80
2022-08-03T13:58:02.348Z,2.00
2022-08-03T14:00:27.025Z,2.30
2022-08-03T14:03:12.838Z,2.20
2022-08-03T14:05:43.666Z,2.00
2022-08-03T14:08:12.735Z,1.60
2022-08-03T14:10:43.428Z,1.80
2022-08-03T14:13:16.867Z,2.00
2022-08-03T14:15:50.230Z,1.90
2022-08-03T14:18:28.550Z,1.90
2022-08-03T14:21:06.772Z,1.80
2022-08-03T14:23:37.849Z,2.10
2022-08-03T14:26:07.748Z,1.90
2022-08-03T14:28:36.479Z,2.20
2022-08-03T14:31:08.205Z,2.10
2022-08-03T14:33:37.003Z,2.10
2022-08-03T14:36:05.782Z,2.00
2022-08-03T14:38:34.014Z,2.00
2022-08-03T14:41:02.273Z,2.30
2022-08-03T14:43:33.732Z,2.10
2022-08-03T14:46:02.760Z,2.30
2022-08-03T14:50:33.158Z,1.90
2022-08-03T14:51:19.533Z,1.80
2022-08-03T14:53:47.774Z,2.00
2022-08-03T14:56:16.308Z,2.10
2022-08-03T14:58:44.470Z,1.80
2022-08-03T15:02:02.579Z,1.50
2022-08-03T15:04:00.752Z,1.80
2022-08-03T15:06:28.955Z,1.60
2022-08-03T15:09:21.229Z,1.60
2022-08-03T15:11:45.561Z,1.90
2022-08-03T15:14:14.692Z,1.80
2022-08-03T15:16:43.340Z,1.90
2022-08-03T15:20:03.744Z,1.50
2022-08-03T15:22:01.027Z,1.70
2022-08-03T15:24:30.007Z,1.70
2022-08-03T15:26:58.722Z,1.70
2022-08-03T15:30:07.283Z,1.80
2022-08-03T15:32:15.494Z,1.70
2022-08-03T15:34:50.271Z,1.90
2022-08-03T15:37:20.924Z,1.60
2022-08-03T15:39:59.783Z,1.60
2022-08-03T15:42:30.369Z,1.70
2022-08-03T15:44:58.806Z,1.80
2022-08-03T15:47:27.325Z,2.00
2022-08-03T15:49:55.614Z,1.90
2022-08-03T15:52:23.770Z,1.80
2022-08-03T15:54:51.998Z,1.60
2022-08-03T15:57:20.574Z,1.70
2022-08-03T15:59:49.001Z,1.80
2022-08-03T16:02:17.227Z,1.90
2022-08-03T16:04:45.481Z,2.00
2022-08-03T16:07:16.049Z,1.60
2022-08-03T16:09:44.469Z,1.50
2022-08-03T16:12:16.086Z,1.90
2022-08-03T16:14:53.748Z,1.50
2022-08-03T16:17:23.704Z,1.60
2022-08-03T16:19:53.409Z,1.80
2022-08-03T16:22:25.031Z,1.70
2022-08-03T16:24:54.641Z,1.80
2022-08-03T16:27:37.076Z,1.80
2022-08-03T16:30:16.012Z,1.60
2022-08-03T16:32:45.616Z,1.60
2022-08-03T16:35:19.679Z,1.60
2022-08-03T16:37:50.751Z,1.80
2022-08-03T16:40:25.296Z,2.20
2022-08-03T16:42:54.362Z,2.20
2022-08-03T16:45:22.783Z,2.30
2022-08-03T16:48:01.593Z,2.50
2022-08-03T16:50:36.068Z,2.30
2022-08-03T16:53:09.303Z,1.90
2022-08-03T16:55:48.461Z,1.90
2022-08-03T16:58:34.412Z,1.90
2022-08-03T17:01:21.559Z,2.00
2022-08-03T17:04:03.218Z,1.90
2022-08-03T17:06:44.961Z,1.90
2022-08-03T17:09:17.992Z,1.80
2022-08-03T17:11:49.891Z,2.00
2022-08-03T17:14:28.474Z,1.70
2022-08-03T17:17:02.112Z,2.40
2022-08-03T17:22:20.850Z,3.00
2022-08-03T17:24:52.220Z,2.90
2022-08-03T17:28:51.422Z,3.30
2022-08-03T17:30:19.044Z,6.90
2022-08-03T17:32:57.203Z,7.30
2022-08-03T17:35:34.435Z,3.50
2022-08-03T17:38:10.444Z,2.30
2022-08-03T17:40:52.087Z,2.20
2022-08-03T17:44:13.195Z,2.70
2022-08-03T17:46:10.787Z,3.40
2022-08-03T17:48:41.144Z,3.50
2022-08-03T17:51:23.032Z,3.50
2022-08-03T17:54:21.811Z,2.30
2022-08-03T17:57:21.853Z,3.00
2022-08-03T18:00:23.007Z,2.70
2022-08-03T18:03:20.941Z,5.80
2022-08-03T18:06:10.956Z,5.20
2022-08-03T18:08:50.240Z,3.90
2022-08-03T18:11:23.014Z,4.60
2022-08-03T18:14:17.926Z,4.30
2022-08-03T18:16:56.439Z,5.00
2022-08-03T18:20:02.903Z,5.40
2022-08-03T18:22:16.638Z,5.80
2022-08-03T18:24:48.658Z,6.10
2022-08-03T18:27:19.515Z,5.00
2022-08-03T18:29:52.177Z,4.20
2022-08-03T18:32:20.748Z,4.00
2022-08-03T18:34:58.243Z,3.90
2022-08-03T18:37:27.559Z,3.20
2022-08-03T18:39:58.508Z,3.40
2022-08-03T18:42:28.528Z,3.80
2022-08-03T18:45:55.245Z,3.20
2022-08-03T18:48:12.077Z,3.20
2022-08-03T18:50:53.837Z,3.30
2022-08-03T18:54:03.049Z,3.70
2022-08-03T18:56:53.168Z,4.20
2022-08-03T18:59:43.112Z,4.00
2022-08-03T19:02:32.989Z,3.70
2022-08-03T19:05:08.343Z,3.30
2022-08-03T19:07:38.410Z,2.90
2022-08-03T19:10:10.835Z,3.40
2022-08-03T19:12:56.442Z,3.60
2022-08-03T19:15:36.768Z,3.50
2022-08-03T19:18:12.134Z,3.80
2022-08-03T19:20:46.774Z,3.90
2022-08-03T19:23:18.241Z,4.30
2022-08-03T19:25:46.554Z,3.60
2022-08-03T19:28:17.297Z,3.70
2022-08-03T19:30:53.252Z,3.30
2022-08-03T19:33:25.817Z,3.50
2022-08-03T19:35:58.386Z,3.50
2022-08-03T19:38:29.830Z,3.60
2022-08-03T19:41:03.249Z,3.80
2022-08-03T19:43:49.499Z,3.40
2022-08-03T19:46:30.542Z,3.80
2022-08-03T19:49:14.960Z,3.40
2022-08-03T19:54:54.019Z,3.80
2022-08-03T19:57:25.451Z,4.00
2022-08-03T19:59:56.739Z,3.40
2022-08-03T20:02:26.172Z,4.80
2022-08-03T20:04:57.214Z,5.00
2022-08-03T20:07:27.186Z,3.90
2022-08-03T20:09:56.625Z,4.00
2022-08-03T20:12:28.896Z,3.60
2022-08-03T20:14:58.207Z,4.00
2022-08-03T20:17:55.229Z,3.70
2022-08-03T20:20:21.773Z,4.00
2022-08-03T20:22:57.733Z,4.30
2022-08-03T20:28:33.454Z,4.30
2022-08-03T20:31:02.096Z,5.10
2022-08-03T20:33:46.372Z,5.40
2022-08-03T20:36:18.789Z,5.40
2022-08-03T20:38:48.491Z,9.50
2022-08-03T20:41:17.921Z,20.50
2022-08-03T20:43:49.215Z,14.50
2022-08-03T20:46:36.021Z,9.20
2022-08-03T20:49:08.683Z,5.80
2022-08-03T20:51:50.678Z,5.70
2022-08-03T20:54:30.918Z,5.50
2022-08-03T20:57:03.601Z,5.90
2022-08-03T20:59:50.501Z,4.70
2022-08-03T21:02:29.454Z,3.90
2022-08-03T21:05:08.442Z,4.40
2022-08-03T21:08:05.349Z,4.00
2022-08-03T21:10:39.842Z,4.10
2022-08-03T21:13:08.996Z,3.50
2022-08-03T21:13:12.580Z,4.40
2022-08-03T21:16:06.139Z,4.50
2022-08-03T21:18:45.256Z,4.00
2022-08-03T21:21:15.907Z,4.00
2022-08-03T21:23:48.656Z,3.90
2022-08-03T21:26:23.984Z,4.10
2022-08-03T21:28:56.484Z,4.30
2022-08-03T21:31:26.436Z,4.50
2022-08-03T21:34:03.914Z,4.50
2022-08-03T21:36:35.322Z,4.40
2022-08-03T21:39:07.572Z,4.10
2022-08-03T21:41:37.509Z,4.50
2022-08-03T21:44:07.067Z,3.90
2022-08-03T21:46:41.280Z,4.00
2022-08-03T21:50:04.749Z,3.70
2022-08-03T21:52:00.983Z,3.80
2022-08-03T21:54:35.598Z,3.90
2022-08-03T21:57:09.097Z,3.30
2022-08-03T21:59:39.047Z,3.90
2022-08-03T22:02:13.862Z,3.50
2022-08-03T22:04:56.952Z,3.80
2022-08-03T22:07:28.562Z,3.80
2022-08-03T22:09:59.504Z,3.60
2022-08-03T22:12:30.098Z,3.40
2022-08-03T22:15:02.010Z,3.80
2022-08-03T22:17:54.849Z,3.30
2022-08-03T22:20:21.907Z,3.70
2022-08-03T22:22:55.309Z,3.30
2022-08-03T22:28:07.191Z,3.60
2022-08-03T22:30:36.442Z,3.10
2022-08-03T22:33:11.224Z,3.20
2022-08-03T22:35:47.417Z,3.40
2022-08-03T22:38:18.124Z,4.50
2022-08-03T22:40:49.063Z,3.60
2022-08-03T22:43:17.434Z,3.60
2022-08-03T22:46:09.681Z,3.30
2022-08-03T22:48:40.688Z,3.40
2022-08-03T22:51:10.499Z,3.60
2022-08-03T22:53:39.635Z,3.50
2022-08-03T22:56:08.950Z,3.90
2022-08-03T22:58:37.291Z,3.30
2022-08-03T23:01:11.772Z,3.60
2022-08-03T23:06:40.808Z,3.60
2022-08-03T23:09:13.171Z,3.50
2022-08-03T23:11:45.980Z,3.60
2022-08-03T23:14:16.959Z,3.20
2022-08-03T23:16:47.402Z,3.40
2022-08-03T23:19:25.392Z,3.40
2022-08-03T23:22:02.644Z,3.50
2022-08-03T23:24:36.237Z,3.60
2022-08-03T23:27:06.016Z,3.70
2022-08-03T23:29:36.451Z,3.90
2022-08-03T23:32:06.035Z,3.90
2022-08-03T23:34:53.319Z,4.10
2022-08-03T23:37:21.982Z,3.10
2022-08-03T23:39:51.593Z,3.50
2022-08-03T23:42:21.747Z,3.40
2022-08-03T23:44:54.853Z,3.30
2022-08-03T23:47:23.815Z,3.10
2022-08-03T23:49:53.718Z,3.80
2022-08-03T23:52:38.145Z,3.20
2022-08-03T23:55:24.888Z,3.40
2022-08-03T23:58:29.983Z,3.80
